sensor_id;sensor_type;location;lat;lon;timestamp;pressure;altitude;pressure_sealevel;temperature;humidity
9672;BME280;4874;43.568;27.824;2023-07-31T00:01:21;98328.84;;;23.24;100.00
9672;BME280;4874;43.568;27.824;2023-07-31T00:03:49;98328.63;;;23.14;100.00
9672;BME280;4874;43.568;27.824;2023-07-31T00:06:16;98333.25;;;22.44;100.00
9672;BME280;4874;43.568;27.824;2023-07-31T00:08:42;98325.03;;;22.85;100.00
9672;BME280;4874;43.568;27.824;2023-07-31T00:11:09;98311.50;;;22.74;100.00
9672;BME280;4874;43.568;27.824;2023-07-31T00:13:36;98319.97;;;22.77;100.00
9672;BME280;4874;43.568;27.824;2023-07-31T00:16:03;98329.00;;;22.02;100.00
9672;BME280;4874;43.568;27.824;2023-07-31T00:18:30;98324.94;;;22.57;100.00
9672;BME280;4874;43.568;27.824;2023-07-31T00:20:57;98332.28;;;23.08;100.00
9672;BME280;4874;43.568;27.824;2023-07-31T00:23:23;98323.31;;;23.31;100.00
9672;BME280;4874;43.568;27.824;2023-07-31T00:25:50;98328.59;;;23.54;100.00
9672;BME280;4874;43.568;27.824;2023-07-31T00:28:17;98326.44;;;23.39;100.00
9672;BME280;4874;43.568;27.824;2023-07-31T00:30:43;98341.47;;;22.95;100.00
9672;BME280;4874;43.568;27.824;2023-07-31T00:33:10;98341.53;;;23.35;100.00
9672;BME280;4874;43.568;27.824;2023-07-31T00:35:37;98339.50;;;22.68;100.00
9672;BME280;4874;43.568;27.824;2023-07-31T00:38:04;98339.31;;;23.09;100.00
9672;BME280;4874;43.568;27.824;2023-07-31T00:40:34;98319.38;;;23.26;100.00
9672;BME280;4874;43.568;27.824;2023-07-31T00:43:02;98348.94;;;22.65;100.00
9672;BME280;4874;43.568;27.824;2023-07-31T00:45:30;98335.44;;;23.16;100.00
9672;BME280;4874;43.568;27.824;2023-07-31T00:47:58;98340.22;;;23.38;100.00
9672;BME280;4874;43.568;27.824;2023-07-31T00:50:25;98340.44;;;23.48;100.00
9672;BME280;4874;43.568;27.824;2023-07-31T00:52:52;98338.13;;;23.40;100.00
9672;BME280;4874;43.568;27.824;2023-07-31T00:55:19;98342.25;;;23.31;100.00
9672;BME280;4874;43.568;27.824;2023-07-31T00:57:48;98327.03;;;23.41;100.00
9672;BME280;4874;43.568;27.824;2023-07-31T01:00:16;98319.44;;;23.15;100.00
9672;BME280;4874;43.568;27.824;2023-07-31T01:02:42;98339.84;;;22.48;100.00
9672;BME280;4874;43.568;27.824;2023-07-31T01:05:09;98337.72;;;22.85;100.00
9672;BME280;4874;43.568;27.824;2023-07-31T01:07:50;98338.06;;;22.07;100.00
9672;BME280;4874;43.568;27.824;2023-07-31T01:10:21;98307.88;;;22.68;100.00
9672;BME280;4874;43.568;27.824;2023-07-31T01:12:51;98340.66;;;22.83;100.00
9672;BME280;4874;43.568;27.824;2023-07-31T01:15:18;98337.97;;;22.83;100.00
9672;BME280;4874;43.568;27.824;2023-07-31T01:17:45;98338.88;;;23.00;100.00
9672;BME280;4874;43.568;27.824;2023-07-31T01:20:21;98333.38;;;22.38;100.00
9672;BME280;4874;43.568;27.824;2023-07-31T01:26:38;98341.38;;;22.90;100.00
9672;BME280;4874;43.568;27.824;2023-07-31T01:29:00;98342.25;;;23.31;100.00
9672;BME280;4874;43.568;27.824;2023-07-31T01:31:29;98344.72;;;23.20;100.00
9672;BME280;4874;43.568;27.824;2023-07-31T01:34:00;98306.06;;;22.51;100.00
9672;BME280;4874;43.568;27.824;2023-07-31T01:36:28;98351.28;;;22.73;100.00
9672;BME280;4874;43.568;27.824;2023-07-31T01:39:00;98390.97;;;22.27;100.00
9672;BME280;4874;43.568;27.824;2023-07-31T01:41:27;98404.06;;;22.53;100.00
9672;BME280;4874;43.568;27.824;2023-07-31T01:43:54;98370.66;;;22.47;100.00
9672;BME280;4874;43.568;27.824;2023-07-31T01:46:21;98348.91;;;21.60;100.00
9672;BME280;4874;43.568;27.824;2023-07-31T01:48:48;98369.19;;;22.74;100.00
9672;BME280;4874;43.568;27.824;2023-07-31T01:51:14;98363.19;;;22.72;100.00
9672;BME280;4874;43.568;27.824;2023-07-31T01:53:41;98376.44;;;22.97;100.00
9672;BME280;4874;43.568;27.824;2023-07-31T01:56:08;98369.88;;;22.81;100.00
9672;BME280;4874;43.568;27.824;2023-07-31T01:58:35;98372.00;;;21.92;100.00
9672;BME280;4874;43.568;27.824;2023-07-31T02:01:01;98376.50;;;21.50;100.00
9672;BME280;4874;43.568;27.824;2023-07-31T02:03:28;98383.25;;;22.42;100.00
9672;BME280;4874;43.568;27.824;2023-07-31T02:05:55;98387.03;;;22.87;100.00
9672;BME280;4874;43.568;27.824;2023-07-31T02:08:23;98379.63;;;22.82;100.00
9672;BME280;4874;43.568;27.824;2023-07-31T02:10:49;98361.88;;;22.63;100.00
9672;BME280;4874;43.568;27.824;2023-07-31T02:13:16;98374.41;;;22.35;100.00
9672;BME280;4874;43.568;27.824;2023-07-31T02:15:45;98378.41;;;22.21;100.00
9672;BME280;4874;43.568;27.824;2023-07-31T02:18:12;98368.28;;;22.16;100.00
9672;BME280;4874;43.568;27.824;2023-07-31T02:20:38;98375.16;;;22.65;100.00
9672;BME280;4874;43.568;27.824;2023-07-31T02:23:05;98360.69;;;21.65;100.00
9672;BME280;4874;43.568;27.824;2023-07-31T02:25:32;98355.81;;;21.44;100.00
9672;BME280;4874;43.568;27.824;2023-07-31T02:27:59;98363.25;;;21.60;100.00
9672;BME280;4874;43.568;27.824;2023-07-31T02:30:25;98368.06;;;22.29;100.00
9672;BME280;4874;43.568;27.824;2023-07-31T02:32:53;98343.78;;;21.99;100.00
9672;BME280;4874;43.568;27.824;2023-07-31T02:35:20;98360.06;;;22.46;100.00
9672;BME280;4874;43.568;27.824;2023-07-31T02:37:46;98371.66;;;22.64;100.00
9672;BME280;4874;43.568;27.824;2023-07-31T02:40:13;98375.81;;;22.37;100.00
9672;BME280;4874;43.568;27.824;2023-07-31T02:42:40;98382.09;;;22.84;100.00
9672;BME280;4874;43.568;27.824;2023-07-31T02:45:07;98374.00;;;22.72;100.00
9672;BME280;4874;43.568;27.824;2023-07-31T02:47:34;98378.25;;;21.56;100.00
9672;BME280;4874;43.568;27.824;2023-07-31T02:50:04;98378.63;;;22.19;100.00
9672;BME280;4874;43.568;27.824;2023-07-31T02:52:31;98381.47;;;22.47;100.00
9672;BME280;4874;43.568;27.824;2023-07-31T02:54:58;98373.53;;;22.75;100.00
9672;BME280;4874;43.568;27.824;2023-07-31T02:57:25;98389.50;;;22.77;100.00
9672;BME280;4874;43.568;27.824;2023-07-31T02:59:52;98400.13;;;22.55;100.00
9672;BME280;4874;43.568;27.824;2023-07-31T03:02:19;98393.53;;;22.74;100.00
9672;BME280;4874;43.568;27.824;2023-07-31T03:04:45;98398.06;;;22.51;100.00
9672;BME280;4874;43.568;27.824;2023-07-31T03:07:12;98391.97;;;22.44;100.00
9672;BME280;4874;43.568;27.824;2023-07-31T03:09:39;98394.44;;;22.45;100.00
9672;BME280;4874;43.568;27.824;2023-07-31T03:12:06;98399.28;;;22.55;100.00
9672;BME280;4874;43.568;27.824;2023-07-31T03:14:33;98396.81;;;22.88;100.00
9672;BME280;4874;43.568;27.824;2023-07-31T03:17:00;98397.41;;;22.90;100.00
9672;BME280;4874;43.568;27.824;2023-07-31T03:19:30;98381.03;;;22.73;100.00
9672;BME280;4874;43.568;27.824;2023-07-31T03:21:57;98395.84;;;23.17;100.00
9672;BME280;4874;43.568;27.824;2023-07-31T03:24:24;98380.13;;;22.79;100.00
9672;BME280;4874;43.568;27.824;2023-07-31T03:26:51;98384.56;;;22.97;100.00
9672;BME280;4874;43.568;27.824;2023-07-31T03:29:18;98381.00;;;23.19;100.00
9672;BME280;4874;43.568;27.824;2023-07-31T03:31:45;98385.25;;;23.15;100.00
9672;BME280;4874;43.568;27.824;2023-07-31T03:34:12;98385.72;;;23.12;100.00
9672;BME280;4874;43.568;27.824;2023-07-31T03:36:38;98383.38;;;23.04;100.00
9672;BME280;4874;43.568;27.824;2023-07-31T03:39:05;98384.78;;;22.49;100.00
9672;BME280;4874;43.568;27.824;2023-07-31T03:41:32;98383.41;;;22.58;100.00
9672;BME280;4874;43.568;27.824;2023-07-31T03:43:59;98382.91;;;23.07;100.00
9672;BME280;4874;43.568;27.824;2023-07-31T03:46:25;98380.72;;;22.81;100.00
9672;BME280;4874;43.568;27.824;2023-07-31T03:48:52;98386.06;;;23.16;100.00
9672;BME280;4874;43.568;27.824;2023-07-31T03:51:19;98378.41;;;23.13;100.00
9672;BME280;4874;43.568;27.824;2023-07-31T03:53:46;98377.94;;;23.16;100.00
9672;BME280;4874;43.568;27.824;2023-07-31T03:56:13;98384.31;;;23.10;100.00
9672;BME280;4874;43.568;27.824;2023-07-31T03:58:39;98387.81;;;23.34;100.00
9672;BME280;4874;43.568;27.824;2023-07-31T04:01:06;98388.50;;;23.41;100.00
9672;BME280;4874;43.568;27.824;2023-07-31T04:03:33;98399.00;;;23.37;100.00
9672;BME280;4874;43.568;27.824;2023-07-31T04:06:00;98398.91;;;23.32;100.00
9672;BME280;4874;43.568;27.824;2023-07-31T04:08:26;98395.53;;;23.02;100.00
9672;BME280;4874;43.568;27.824;2023-07-31T04:10:53;98393.63;;;23.14;100.00
9672;BME280;4874;43.568;27.824;2023-07-31T04:13:22;98394.78;;;23.18;100.00
9672;BME280;4874;43.568;27.824;2023-07-31T04:15:49;98383.38;;;23.04;100.00
9672;BME280;4874;43.568;27.824;2023-07-31T04:18:20;98399.41;;;22.94;100.00
9672;BME280;4874;43.568;27.824;2023-07-31T04:20:47;98387.75;;;23.57;100.00
9672;BME280;4874;43.568;27.824;2023-07-31T04:23:14;98385.56;;;23.42;100.00
9672;BME280;4874;43.568;27.824;2023-07-31T04:25:41;98399.50;;;23.11;100.00
9672;BME280;4874;43.568;27.824;2023-07-31T04:28:07;98401.25;;;23.17;100.00
9672;BME280;4874;43.568;27.824;2023-07-31T04:30:34;98408.56;;;23.16;100.00
9672;BME280;4874;43.568;27.824;2023-07-31T04:33:01;98400.19;;;23.29;100.00
9672;BME280;4874;43.568;27.824;2023-07-31T04:35:28;98397.94;;;23.38;100.00
9672;BME280;4874;43.568;27.824;2023-07-31T04:37:54;98399.38;;;23.29;100.00
9672;BME280;4874;43.568;27.824;2023-07-31T04:40:21;98399.50;;;23.22;100.00
9672;BME280;4874;43.568;27.824;2023-07-31T04:42:48;98404.47;;;23.65;100.00
9672;BME280;4874;43.568;27.824;2023-07-31T04:45:15;98403.56;;;23.48;100.00
9672;BME280;4874;43.568;27.824;2023-07-31T04:47:41;98399.00;;;23.25;100.00
9672;BME280;4874;43.568;27.824;2023-07-31T04:50:09;98410.47;;;23.27;100.00
9672;BME280;4874;43.568;27.824;2023-07-31T04:52:36;98407.63;;;23.34;100.00
9672;BME280;4874;43.568;27.824;2023-07-31T04:55:02;98415.06;;;23.55;100.00
9672;BME280;4874;43.568;27.824;2023-07-31T04:57:29;98414.66;;;23.35;100.00
9672;BME280;4874;43.568;27.824;2023-07-31T04:59:56;98420.00;;;23.07;100.00
9672;BME280;4874;43.568;27.824;2023-07-31T05:02:23;98415.91;;;23.56;100.00
9672;BME280;4874;43.568;27.824;2023-07-31T05:04:51;98410.09;;;23.01;100.00
9672;BME280;4874;43.568;27.824;2023-07-31T05:07:17;98416.34;;;23.01;100.00
9672;BME280;4874;43.568;27.824;2023-07-31T05:09:44;98414.81;;;23.17;100.00
9672;BME280;4874;43.568;27.824;2023-07-31T05:12:11;98387.28;;;22.74;100.00
9672;BME280;4874;43.568;27.824;2023-07-31T05:14:37;98423.72;;;23.41;100.00
9672;BME280;4874;43.568;27.824;2023-07-31T05:17:04;98412.78;;;23.36;100.00
9672;BME280;4874;43.568;27.824;2023-07-31T05:19:31;98422.19;;;23.21;100.00
9672;BME280;4874;43.568;27.824;2023-07-31T05:21:58;98423.47;;;23.82;100.00
9672;BME280;4874;43.568;27.824;2023-07-31T05:24:25;98401.25;;;23.28;100.00
9672;BME280;4874;43.568;27.824;2023-07-31T05:26:51;98427.50;;;23.28;100.00
9672;BME280;4874;43.568;27.824;2023-07-31T05:29:18;98415.28;;;23.14;100.00
9672;BME280;4874;43.568;27.824;2023-07-31T05:31:45;98427.63;;;23.45;100.00
9672;BME280;4874;43.568;27.824;2023-07-31T05:34:11;98431.66;;;23.70;100.00
9672;BME280;4874;43.568;27.824;2023-07-31T05:36:38;98396.69;;;22.71;100.00
9672;BME280;4874;43.568;27.824;2023-07-31T05:39:05;98429.53;;;23.33;100.00
9672;BME280;4874;43.568;27.824;2023-07-31T05:41:35;98436.94;;;23.25;100.00
9672;BME280;4874;43.568;27.824;2023-07-31T05:44:02;98437.03;;;23.42;100.00
9672;BME280;4874;43.568;27.824;2023-07-31T05:46:29;98423.50;;;23.42;100.00
9672;BME280;4874;43.568;27.824;2023-07-31T05:48:58;98438.81;;;23.37;100.00
9672;BME280;4874;43.568;27.824;2023-07-31T05:51:27;98431.31;;;24.06;100.00
9672;BME280;4874;43.568;27.824;2023-07-31T05:53:54;98342.25;;;23.31;100.00
9672;BME280;4874;43.568;27.824;2023-07-31T05:56:21;98435.06;;;24.05;100.00
9672;BME280;4874;43.568;27.824;2023-07-31T05:58:48;98424.25;;;23.94;100.00
9672;BME280;4874;43.568;27.824;2023-07-31T06:01:16;98450.88;;;23.69;100.00
9672;BME280;4874;43.568;27.824;2023-07-31T06:03:43;98443.22;;;23.66;100.00
9672;BME280;4874;43.568;27.824;2023-07-31T06:06:11;98394.25;;;23.84;100.00
9672;BME280;4874;43.568;27.824;2023-07-31T06:08:37;98415.41;;;23.70;100.00
9672;BME280;4874;43.568;27.824;2023-07-31T06:11:04;98439.31;;;24.46;100.00
9672;BME280;4874;43.568;27.824;2023-07-31T06:13:32;98455.38;;;24.03;100.00
9672;BME280;4874;43.568;27.824;2023-07-31T06:15:58;98422.13;;;23.96;100.00
9672;BME280;4874;43.568;27.824;2023-07-31T06:18:26;98422.44;;;24.11;100.00
9672;BME280;4874;43.568;27.824;2023-07-31T06:20:53;98430.47;;;24.06;100.00
9672;BME280;4874;43.568;27.824;2023-07-31T06:23:20;98452.69;;;24.48;100.00
9672;BME280;4874;43.568;27.824;2023-07-31T06:25:47;98434.72;;;24.47;100.00
9672;BME280;4874;43.568;27.824;2023-07-31T06:28:14;98448.53;;;24.45;100.00
9672;BME280;4874;43.568;27.824;2023-07-31T06:30:41;98467.38;;;24.35;100.00
9672;BME280;4874;43.568;27.824;2023-07-31T06:33:09;98480.44;;;24.38;100.00
9672;BME280;4874;43.568;27.824;2023-07-31T06:35:36;98471.84;;;24.58;100.00
9672;BME280;4874;43.568;27.824;2023-07-31T06:38:02;98467.88;;;24.32;100.00
9672;BME280;4874;43.568;27.824;2023-07-31T06:40:30;98463.88;;;24.51;100.00
9672;BME280;4874;43.568;27.824;2023-07-31T06:42:56;98442.75;;;23.97;100.00
9672;BME280;4874;43.568;27.824;2023-07-31T06:45:23;98469.00;;;24.36;100.00
9672;BME280;4874;43.568;27.824;2023-07-31T06:47:50;98451.84;;;24.64;100.00
9672;BME280;4874;43.568;27.824;2023-07-31T06:50:17;98444.31;;;24.37;100.00
9672;BME280;4874;43.568;27.824;2023-07-31T06:52:44;98474.25;;;24.71;100.00
9672;BME280;4874;43.568;27.824;2023-07-31T06:55:19;98469.66;;;24.88;100.00
9672;BME280;4874;43.568;27.824;2023-07-31T06:57:47;98463.16;;;24.89;100.00
9672;BME280;4874;43.568;27.824;2023-07-31T07:00:14;98470.97;;;24.85;100.00
9672;BME280;4874;43.568;27.824;2023-07-31T07:02:41;98469.53;;;25.54;100.00
9672;BME280;4874;43.568;27.824;2023-07-31T07:05:08;98460.50;;;24.77;100.00
9672;BME280;4874;43.568;27.824;2023-07-31T07:07:36;98456.66;;;24.90;100.00
9672;BME280;4874;43.568;27.824;2023-07-31T07:10:03;98467.81;;;25.10;100.00
9672;BME280;4874;43.568;27.824;2023-07-31T07:12:30;98439.75;;;25.04;100.00
9672;BME280;4874;43.568;27.824;2023-07-31T07:14:58;98464.03;;;25.11;100.00
9672;BME280;4874;43.568;27.824;2023-07-31T07:17:28;98454.34;;;24.82;100.00
9672;BME280;4874;43.568;27.824;2023-07-31T07:19:59;98468.56;;;25.05;100.00
9672;BME280;4874;43.568;27.824;2023-07-31T07:22:26;98471.13;;;25.33;100.00
9672;BME280;4874;43.568;27.824;2023-07-31T07:24:54;98476.94;;;25.37;100.00
9672;BME280;4874;43.568;27.824;2023-07-31T07:27:21;98461.66;;;25.14;100.00
9672;BME280;4874;43.568;27.824;2023-07-31T07:29:50;98468.03;;;25.25;100.00
9672;BME280;4874;43.568;27.824;2023-07-31T07:32:18;98459.13;;;25.46;100.00
9672;BME280;4874;43.568;27.824;2023-07-31T07:34:45;98449.41;;;25.33;100.00
9672;BME280;4874;43.568;27.824;2023-07-31T07:37:11;98460.63;;;25.37;100.00
9672;BME280;4874;43.568;27.824;2023-07-31T07:39:38;98473.63;;;25.35;100.00
9672;BME280;4874;43.568;27.824;2023-07-31T07:42:05;98416.78;;;25.33;100.00
9672;BME280;4874;43.568;27.824;2023-07-31T07:44:32;98455.78;;;25.82;100.00
9672;BME280;4874;43.568;27.824;2023-07-31T07:46:59;98464.94;;;25.98;100.00
9672;BME280;4874;43.568;27.824;2023-07-31T07:49:25;98464.38;;;26.17;100.00
9672;BME280;4874;43.568;27.824;2023-07-31T07:51:52;98482.75;;;26.32;100.00
9672;BME280;4874;43.568;27.824;2023-07-31T07:54:19;98439.50;;;25.87;100.00
9672;BME280;4874;43.568;27.824;2023-07-31T07:56:49;98475.44;;;25.89;100.00
9672;BME280;4874;43.568;27.824;2023-07-31T07:59:16;98472.97;;;25.88;100.00
9672;BME280;4874;43.568;27.824;2023-07-31T08:01:43;98473.66;;;26.00;100.00
9672;BME280;4874;43.568;27.824;2023-07-31T08:04:10;98455.41;;;25.74;100.00
9672;BME280;4874;43.568;27.824;2023-07-31T08:06:37;98469.22;;;26.42;100.00
9672;BME280;4874;43.568;27.824;2023-07-31T08:09:04;98454.44;;;25.85;100.00
9672;BME280;4874;43.568;27.824;2023-07-31T08:11:33;98466.78;;;25.71;100.00
9672;BME280;4874;43.568;27.824;2023-07-31T08:14:00;98481.78;;;26.43;100.00
9672;BME280;4874;43.568;27.824;2023-07-31T08:16:27;98471.97;;;26.15;100.00
9672;BME280;4874;43.568;27.824;2023-07-31T08:18:54;98490.38;;;26.08;100.00
9672;BME280;4874;43.568;27.824;2023-07-31T08:21:21;98482.41;;;26.02;100.00
9672;BME280;4874;43.568;27.824;2023-07-31T08:23:48;98490.00;;;26.48;100.00
9672;BME280;4874;43.568;27.824;2023-07-31T08:26:16;98493.72;;;26.42;100.00
9672;BME280;4874;43.568;27.824;2023-07-31T08:28:43;98495.34;;;26.38;100.00
9672;BME280;4874;43.568;27.824;2023-07-31T08:31:10;98494.22;;;26.12;100.00
9672;BME280;4874;43.568;27.824;2023-07-31T08:33:38;98423.09;;;25.56;100.00
9672;BME280;4874;43.568;27.824;2023-07-31T08:36:06;98495.16;;;25.58;100.00
9672;BME280;4874;43.568;27.824;2023-07-31T08:38:33;98507.22;;;26.05;100.00
9672;BME280;4874;43.568;27.824;2023-07-31T08:41:00;98509.88;;;25.40;100.00
9672;BME280;4874;43.568;27.824;2023-07-31T08:43:27;98499.81;;;25.24;100.00
9672;BME280;4874;43.568;27.824;2023-07-31T08:45:54;98514.81;;;25.10;100.00
9672;BME280;4874;43.568;27.824;2023-07-31T08:48:22;98489.34;;;25.33;100.00
9672;BME280;4874;43.568;27.824;2023-07-31T08:50:51;98496.34;;;25.45;100.00
9672;BME280;4874;43.568;27.824;2023-07-31T08:53:18;98514.84;;;25.87;100.00
9672;BME280;4874;43.568;27.824;2023-07-31T08:55:46;98519.56;;;25.53;100.00
9672;BME280;4874;43.568;27.824;2023-07-31T08:58:14;98505.03;;;25.64;100.00
9672;BME280;4874;43.568;27.824;2023-07-31T09:00:42;98525.69;;;25.43;100.00
9672;BME280;4874;43.568;27.824;2023-07-31T09:03:18;98519.88;;;25.57;100.00
9672;BME280;4874;43.568;27.824;2023-07-31T09:05:46;98500.59;;;25.03;100.00
9672;BME280;4874;43.568;27.824;2023-07-31T09:08:16;98528.41;;;24.94;100.00
9672;BME280;4874;43.568;27.824;2023-07-31T09:10:44;98548.75;;;25.24;100.00
9672;BME280;4874;43.568;27.824;2023-07-31T09:13:14;98530.94;;;25.17;100.00
9672;BME280;4874;43.568;27.824;2023-07-31T09:15:44;98530.88;;;25.12;100.00
9672;BME280;4874;43.568;27.824;2023-07-31T09:18:11;98530.72;;;25.02;100.00
9672;BME280;4874;43.568;27.824;2023-07-31T09:20:38;98522.22;;;24.37;100.00
9672;BME280;4874;43.568;27.824;2023-07-31T09:25:34;98521.69;;;24.23;100.00
9672;BME280;4874;43.568;27.824;2023-07-31T09:28:03;98552.53;;;24.34;100.00
9672;BME280;4874;43.568;27.824;2023-07-31T09:30:30;98564.47;;;24.33;100.00
9672;BME280;4874;43.568;27.824;2023-07-31T09:33:02;98560.47;;;24.24;100.00
9672;BME280;4874;43.568;27.824;2023-07-31T09:35:31;98569.25;;;23.91;100.00
9672;BME280;4874;43.568;27.824;2023-07-31T09:38:09;98544.50;;;24.11;100.00
9672;BME280;4874;43.568;27.824;2023-07-31T09:40:42;98565.63;;;24.37;100.00
9672;BME280;4874;43.568;27.824;2023-07-31T09:43:10;98558.59;;;24.24;100.00
9672;BME280;4874;43.568;27.824;2023-07-31T09:45:39;98564.16;;;24.18;100.00
9672;BME280;4874;43.568;27.824;2023-07-31T09:48:15;98566.09;;;24.62;100.00
9672;BME280;4874;43.568;27.824;2023-07-31T09:50:48;98512.28;;;24.42;100.00
9672;BME280;4874;43.568;27.824;2023-07-31T09:53:16;98553.13;;;24.64;100.00
9672;BME280;4874;43.568;27.824;2023-07-31T09:55:45;98550.44;;;24.81;100.00
9672;BME280;4874;43.568;27.824;2023-07-31T09:58:12;98537.34;;;25.61;100.00
9672;BME280;4874;43.568;27.824;2023-07-31T10:00:39;98557.63;;;25.20;100.00
9672;BME280;4874;43.568;27.824;2023-07-31T10:03:08;98557.63;;;25.03;100.00
9672;BME280;4874;43.568;27.824;2023-07-31T10:05:39;98556.38;;;24.78;100.00
9672;BME280;4874;43.568;27.824;2023-07-31T10:08:09;98560.91;;;24.61;100.00
9672;BME280;4874;43.568;27.824;2023-07-31T10:10:37;98539.84;;;24.51;100.00
9672;BME280;4874;43.568;27.824;2023-07-31T10:13:07;98548.97;;;25.06;100.00
9672;BME280;4874;43.568;27.824;2023-07-31T10:15:35;98517.84;;;24.36;100.00
9672;BME280;4874;43.568;27.824;2023-07-31T10:18:05;98557.69;;;25.25;100.00
9672;BME280;4874;43.568;27.824;2023-07-31T10:20:33;98562.63;;;24.95;100.00
9672;BME280;4874;43.568;27.824;2023-07-31T10:23:00;98562.13;;;24.98;100.00
9672;BME280;4874;43.568;27.824;2023-07-31T10:25:28;98545.94;;;25.19;100.00
9672;BME280;4874;43.568;27.824;2023-07-31T10:27:57;98565.81;;;24.75;100.00
9672;BME280;4874;43.568;27.824;2023-07-31T10:30:29;98547.00;;;25.18;100.00
9672;BME280;4874;43.568;27.824;2023-07-31T10:32:57;98563.56;;;25.00;100.00
9672;BME280;4874;43.568;27.824;2023-07-31T10:35:24;98551.38;;;25.19;100.00
9672;BME280;4874;43.568;27.824;2023-07-31T10:37:52;98547.00;;;25.02;100.00
9672;BME280;4874;43.568;27.824;2023-07-31T10:40:26;98548.19;;;24.61;100.00
9672;BME280;4874;43.568;27.824;2023-07-31T10:42:56;98546.50;;;24.88;100.00
9672;BME280;4874;43.568;27.824;2023-07-31T10:48:01;98543.88;;;24.93;100.00
9672;BME280;4874;43.568;27.824;2023-07-31T10:50:30;98545.28;;;25.12;100.00
9672;BME280;4874;43.568;27.824;2023-07-31T10:52:59;98545.25;;;24.96;100.00
9672;BME280;4874;43.568;27.824;2023-07-31T10:58:07;98547.31;;;25.55;100.00
9672;BME280;4874;43.568;27.824;2023-07-31T11:00:37;98466.09;;;24.87;100.00
9672;BME280;4874;43.568;27.824;2023-07-31T11:03:09;98536.47;;;24.89;100.00
9672;BME280;4874;43.568;27.824;2023-07-31T11:08:17;98547.22;;;24.84;100.00
9672;BME280;4874;43.568;27.824;2023-07-31T11:10:45;98531.94;;;24.78;100.00
9672;BME280;4874;43.568;27.824;2023-07-31T11:13:14;98537.94;;;24.96;100.00
9672;BME280;4874;43.568;27.824;2023-07-31T11:15:41;98513.44;;;24.63;100.00
9672;BME280;4874;43.568;27.824;2023-07-31T11:18:08;98516.66;;;24.88;100.00
9672;BME280;4874;43.568;27.824;2023-07-31T11:20:37;98508.91;;;24.80;100.00
9672;BME280;4874;43.568;27.824;2023-07-31T11:23:09;98511.22;;;24.88;100.00
9672;BME280;4874;43.568;27.824;2023-07-31T11:25:39;98519.19;;;25.28;100.00
9672;BME280;4874;43.568;27.824;2023-07-31T11:28:11;98502.31;;;25.09;100.00
9672;BME280;4874;43.568;27.824;2023-07-31T11:30:39;98507.75;;;24.76;100.00
9672;BME280;4874;43.568;27.824;2023-07-31T11:33:11;98488.34;;;25.01;100.00
9672;BME280;4874;43.568;27.824;2023-07-31T11:35:44;98488.38;;;25.22;100.00
9672;BME280;4874;43.568;27.824;2023-07-31T11:38:14;98476.22;;;25.08;100.00
9672;BME280;4874;43.568;27.824;2023-07-31T11:40:48;98500.66;;;25.41;100.00
9672;BME280;4874;43.568;27.824;2023-07-31T11:43:15;98479.50;;;25.65;100.00
9672;BME280;4874;43.568;27.824;2023-07-31T11:45:47;98497.59;;;25.38;100.00
9672;BME280;4874;43.568;27.824;2023-07-31T11:48:27;98500.16;;;25.44;100.00
9672;BME280;4874;43.568;27.824;2023-07-31T11:50:57;98500.59;;;25.36;100.00
9672;BME280;4874;43.568;27.824;2023-07-31T11:53:43;98474.44;;;25.74;100.00
9672;BME280;4874;43.568;27.824;2023-07-31T11:56:13;98495.16;;;25.58;100.00
9672;BME280;4874;43.568;27.824;2023-07-31T11:58:40;98500.91;;;25.62;100.00
9672;BME280;4874;43.568;27.824;2023-07-31T12:01:09;98491.06;;;25.56;100.00
9672;BME280;4874;43.568;27.824;2023-07-31T12:03:37;98499.56;;;25.42;100.00
9672;BME280;4874;43.568;27.824;2023-07-31T12:06:04;98499.16;;;25.94;100.00
9672;BME280;4874;43.568;27.824;2023-07-31T12:08:31;98487.66;;;25.10;100.00
9672;BME280;4874;43.568;27.824;2023-07-31T12:11:03;98494.91;;;25.05;100.00
9672;BME280;4874;43.568;27.824;2023-07-31T12:13:31;98517.44;;;24.72;100.00
9672;BME280;4874;43.568;27.824;2023-07-31T12:16:00;98503.72;;;24.95;100.00
9672;BME280;4874;43.568;27.824;2023-07-31T12:18:33;98503.91;;;24.89;100.00
9672;BME280;4874;43.568;27.824;2023-07-31T12:21:02;98482.47;;;24.92;100.00
9672;BME280;4874;43.568;27.824;2023-07-31T12:23:31;98492.47;;;24.14;100.00
9672;BME280;4874;43.568;27.824;2023-07-31T12:26:16;98483.63;;;24.18;100.00
9672;BME280;4874;43.568;27.824;2023-07-31T12:31:13;98484.09;;;24.15;100.00
9672;BME280;4874;43.568;27.824;2023-07-31T12:33:41;98481.25;;;24.22;100.00
9672;BME280;4874;43.568;27.824;2023-07-31T12:36:15;98474.25;;;24.71;100.00
9672;BME280;4874;43.568;27.824;2023-07-31T12:38:43;98437.88;;;24.10;100.00
9672;BME280;4874;43.568;27.824;2023-07-31T12:41:10;98463.38;;;24.87;100.00
9672;BME280;4874;43.568;27.824;2023-07-31T12:43:39;98466.75;;;24.94;100.00
9672;BME280;4874;43.568;27.824;2023-07-31T12:46:07;98442.03;;;24.46;100.00
9672;BME280;4874;43.568;27.824;2023-07-31T12:48:35;98450.81;;;24.81;100.00
9672;BME280;4874;43.568;27.824;2023-07-31T12:51:02;98457.16;;;24.87;100.00
9672;BME280;4874;43.568;27.824;2023-07-31T12:53:29;98446.03;;;25.43;100.00
9672;BME280;4874;43.568;27.824;2023-07-31T12:55:56;98455.91;;;25.32;100.00
9672;BME280;4874;43.568;27.824;2023-07-31T12:58:23;98448.38;;;25.18;100.00
9672;BME280;4874;43.568;27.824;2023-07-31T13:00:50;98355.69;;;24.76;100.00
9672;BME280;4874;43.568;27.824;2023-07-31T13:03:17;98454.75;;;25.67;100.00
9672;BME280;4874;43.568;27.824;2023-07-31T13:05:44;98470.28;;;25.11;100.00
9672;BME280;4874;43.568;27.824;2023-07-31T13:08:11;98449.06;;;25.46;100.00
9672;BME280;4874;43.568;27.824;2023-07-31T13:10:38;98449.63;;;25.10;100.00
9672;BME280;4874;43.568;27.824;2023-07-31T13:13:05;98451.59;;;24.65;100.00
9672;BME280;4874;43.568;27.824;2023-07-31T13:15:32;98454.50;;;24.92;100.00
9672;BME280;4874;43.568;27.824;2023-07-31T13:17:59;98453.50;;;24.98;100.00
9672;BME280;4874;43.568;27.824;2023-07-31T13:20:26;98461.47;;;25.04;100.00